Nearby METAR Reports

 

KRYN - Tucson/Ryan Fld, Arizona, USA
Distance from station: SSW 16mi, 26km
Updated: Fri, 14-Aug-2020 9:45am MST
Clear
Clear
 Wind from W
Wind: W 12 mph , 19 km/h
Temperature: 99°F , 37°C
Dew Point: 48°F , 9°C
Humidity: 18%
Barometer: 29.99 inHg , 1015.6 hPa
Clouds: Clear
Visibility: 10 miles , 16 km
2020/08/14 16:45 KRYN 141645Z 28010KT 10SM CLR 37/09 A2999
KTUS - Tucson, Arizona, USA
Distance from station: SSE 18mi, 28km
Updated: Fri, 14-Aug-2020 9:53am MST
Clear
Clear
 Wind from N
Wind: N 7 mph , 11 km/h
Temperature: 99°F , 37°C
Dew Point: 50°F , 10°C
Humidity: 19%
Barometer: 30.02 inHg , 1016.6 hPa
Clouds: Clear
Visibility: 10 miles , 16 km
2020/08/14 16:53 KTUS 141653Z 35006KT 10SM CLR 37/10 A3002 RMK AO2 SLP106 T03720100
 
KDMA - Davis/Tucson, Arizona, USA
Distance from station: SE 18mi, 29km
Updated: Fri, 14-Aug-2020 9:58am MST
Clear
Clear
 Wind from calm
Wind: Calm
Temperature: 97°F , 36°C
Dew Point: 52°F , 11°C
Humidity: 22%
Barometer: 30.00 inHg , 1015.9 hPa
Clouds: Clear
Visibility: 10 miles , 16 km
2020/08/14 16:58 KDMA 141658Z AUTO 00000KT 10SM CLR 36/11 A3000 RMK AO2 SLP108 T03610110 FZRANO $
KCGZ - Casa Granda, Arizona, USA
Distance from station: NW 57mi, 92km
Updated: Fri, 14-Aug-2020 9:56am MST
Clear
Clear
 Wind from varies
Wind: varies 5 mph , 7 km/h
Temperature: 102°F , 39°C
Dew Point: 54°F , 12°C
Humidity: 20%
Barometer: 29.91 inHg , 1012.9 hPa
Clouds: Clear
Visibility: 10 miles , 16 km
2020/08/14 16:56 KCGZ 141656Z AUTO VRB04KT 10SM CLR 39/12 A2991 RMK AO2 SLP107 T03940122
 
KALK - Pioneer Airfield, Arizona, USA
Distance from station: SE 65mi, 104km
Updated: Fri, 14-Aug-2020 9:56am MST
Clear
Clear
 Wind from NNE
Wind: NNE 7 mph , 11 km/h
Temperature: 91°F , 33°C
Dew Point: 46°F , 8°C
Humidity: 21%
Barometer: 30.20 inHg , 1022.7 hPa
Clouds: Clear
Visibility: 10 miles , 16 km
2020/08/14 16:56 KALK 141656Z AUTO 02006KT 10SM CLR 33/08 A3020 RMK AO2 SLP118 T03330083
KOLS - Nogales, Arizona, USA
Distance from station: S 67mi, 108km
Updated: Fri, 14-Aug-2020 9:54am MST
Clear
Clear
 Wind from SSW
Wind: SSW 6 mph , 9 km/h
Temperature: 90°F , 32°C
Heat Index: 91°F , 33°C
Dew Point: 63°F , 17°C
Humidity: 41%
Barometer: 30.13 inHg , 1020.3 hPa
Clouds: Clear
Visibility: 10 miles , 16 km
2020/08/14 16:54 KOLS 141654Z AUTO 21005KT 10SM CLR 32/17 A3013 RMK AO2 SLP122 T03170167
 
KFHU - Fort Huachuca, Arizona, USA
Distance from station: SE 69mi, 110km
Updated: Fri, 14-Aug-2020 9:58am MST
Overcast
Overcast
 Wind from SE
Wind: SE 3 mph , 6 km/h
Temperature: 93°F , 34°C
Dew Point: 48°F , 9°C
Humidity: 21%
Barometer: 30.19 inHg , 1022.4 hPa
Clouds: Overcast
Visibility: 10 miles , 16 km
Cloud details: Overcast 13000 ft
2020/08/14 16:58 KFHU 141658Z AUTO 13003KT 10SM OVC130 34/09 A3019 RMK AO2 SLP134 T03390085
KIWA - Chandler/Mesa, Arizona, USA
Distance from station: NNW 73mi, 117km
Updated: Fri, 14-Aug-2020 9:50am MST
Partly cloudy
Partly cloudy
 Wind from calm
Wind: Calm
Temperature: 100°F , 38°C
Dew Point: 52°F , 11°C
Humidity: 20%
Barometer: 29.91 inHg , 1012.9 hPa
Clouds: Partly cloudy
Visibility: 10 miles , 16 km
Cloud details: Partly cloudy 15000 ft
2020/08/14 16:50 KIWA 141650Z 00000KT 10SM SCT150 38/11 A2991